• Join FlightAware (Why Join?)
  • Login
  • US Flag 
02:22AM EDT


 

Airport Tracker/Info


-or-


 

Live Flight TrackerFlight Track Log ✈ SKW3459 ✈ 18-Apr-2013 ✈ KLGB - KPDX

Flight Track Log - Related Links

Times and Time Zones

All times are in EDT time to prevent confusion due to time zone crossing. See the SKW3459 flight status page for this flight to view local times or setup timezone preferences in your user account.

Time Position Orientation Groundspeed Altitude Reporting Facility
EDT Latitude Longitude Course Direction KTS MPH feet Rate Location/Type
08:08PM 33.8500 -118.1833 335° Northwest 163 188 1,600  Level Southern California TRACON
08:09PM 33.8500 -118.2500 270° West 205 236 3,700 2,340 Climbing Southern California TRACON
08:10PM 33.8667 -118.3167 287° West 213 245 6,300 2,100 Climbing Southern California TRACON
08:11PM 33.8833 -118.4000 284° West 283 326 8,200 1,260 Climbing Southern California TRACON
08:12PM 33.8931 -118.5019 277° West 281 323 9,000 360 Climbing Los Angeles Center
08:13PM 34.1643 -118.5367 335° Northwest  Level FlightAware Approximate
08:13PM 33.9031 -118.5956 277° West 281 323 9,000  Level Los Angeles Center
08:14PM 33.9494 -118.6772 304° West 275 316 9,000  Level Los Angeles Center
08:15PM 34.0111 -118.7075 338° Northwest 265 305 9,000  Level Los Angeles Center
08:16PM 34.0836 -118.6703 23° Northeast 262 302 9,000 420 Level Los Angeles Center
08:17PM 34.1492 -118.6369 23° Northeast 258 297 9,900 1,140 Climbing Los Angeles Center
08:18PM 34.2253 -118.6383 359° North 288 331 11,400 1,560 Climbing Los Angeles Center
08:19PM 34.3114 -118.6714 342° North 318 366 13,200 1,860 Climbing Los Angeles Center
08:20PM 34.4017 -118.7036 344° North 335 386 15,300 1,980 Climbing Los Angeles Center
08:21PM 34.4936 -118.7389 342° North 344 396 17,300 1,980 Climbing Los Angeles Center
08:22PM 34.6044 -118.7825 342° North 350 403 19,400 1,800 Climbing Los Angeles Center
08:23PM 34.6975 -118.8217 341° North 355 409 21,100 1,560 Climbing Los Angeles Center
08:24PM 34.7925 -118.8583 342° North 357 411 22,700 1,440 Climbing Los Angeles Center
08:25PM 34.8897 -118.8933 344° North 362 417 24,100 1,200 Climbing Los Angeles Center
08:26PM 34.9897 -118.9278 344° North 366 421 25,200 1,080 Climbing Los Angeles Center
08:27PM 35.0917 -118.9639 344° North 382 440 26,400 1,200 Climbing Los Angeles Center
08:28PM 35.2147 -119.0081 344° North 388 447 27,700 960 Climbing Los Angeles Center
08:29PM 35.3169 -119.0458 343° North 386 444 28,500 780 Climbing Los Angeles Center
08:31PM 35.4217 -119.0842 343° North 392 451 29,400 1,020 Climbing Los Angeles Center
08:33PM 35.6272 -119.1603 343° North 385 443 31,700 900 Climbing Los Angeles Center
08:34PM 35.7506 -119.2064 343° North 386 444 32,300 480 Climbing Los Angeles Center
08:35PM 35.8553 -119.2456 343° North 391 450 32,800 480 Climbing Los Angeles Center
08:36PM 35.9611 -119.2858 343° North 397 457 33,300 480 Climbing Los Angeles Center
08:37PM 36.0681 -119.3264 343° North 402 463 33,800 480 Climbing Los Angeles Center
08:38PM 36.1767 -119.3669 343° North 406 467 34,300 480 Climbing Los Angeles Center
08:39PM 36.2842 -119.4072 343° North 406 467 34,800 480 Climbing Los Angeles Center
08:40PM 36.4161 -119.4547 344° North 410 472 35,400 480 Climbing Oakland Center
08:41PM 36.5244 -119.4953 343° North 408 470 35,900 240 Climbing Oakland Center
08:42PM 36.6333 -119.5369 343° North 412 474 36,000  Climbing Oakland Center
08:43PM 36.7442 -119.5783 343° North 416 479 36,000  Level Oakland Center
08:44PM 36.8556 -119.6244 342° North 419 482 36,000  Level Oakland Center
08:45PM 36.9642 -119.6672 343° North 410 472 36,000  Level Oakland Center
08:46PM 37.0747 -119.7097 343° North 414 476 36,000  Level Oakland Center
08:47PM 37.2064 -119.7614 343° North 415 478 36,000  Level Oakland Center
08:48PM 37.3158 -119.8044 343° North 413 475 36,000  Level Oakland Center
08:49PM 37.4258 -119.8464 343° North 417 480 36,000  Level Oakland Center
08:50PM 37.5367 -119.8881 343° North 423 487 36,000  Level Oakland Center
08:51PM 37.6481 -119.9258 345° North 425 489 36,000  Level Oakland Center
08:52PM 37.7556 -119.9686 343° North 414 476 36,000  Level Oakland Center
08:53PM 37.8647 -120.0128 342° North 410 472 36,000  Level Oakland Center
08:54PM 37.9725 -120.0569 342° North 409 471 36,000  Level Oakland Center
08:55PM 38.1042 -120.1086 343° North 412 474 36,000  Level Oakland Center
08:56PM 38.2128 -120.1514 343° North 410 472 36,000  Level Oakland Center
08:57PM 38.3203 -120.1950 342° North 407 468 36,000  Level Oakland Center
08:58PM 38.4294 -120.2381 343° North 411 473 36,000  Level Oakland Center
08:59PM 38.5389 -120.2825 342° North 413 475 36,000  Level Oakland Center
09:00PM 38.6483 -120.3261 343° North 412 474 36,000  Level Oakland Center
09:01PM 38.7569 -120.3703 342° North 412 474 36,000  Level Oakland Center
09:02PM 38.8661 -120.4156 342° North 414 476 36,000  Level Oakland Center
09:03PM 38.9975 -120.4694 342° North 413 475 36,000  Level Oakland Center
09:04PM 39.1064 -120.5125 343° North 412 474 36,000  Level Oakland Center
09:05PM 39.2164 -120.5575 342° North 415 478 36,000  Level Oakland Center
09:06PM 39.3264 -120.6028 342° North 416 479 36,000  Level Oakland Center
09:07PM 39.4361 -120.6483 342° North 416 479 36,000  Level Oakland Center
09:08PM 39.5450 -120.6931 342° North 413 475 36,000  Level Oakland Center
09:10PM 39.6536 -120.7381 342° North 411 473 36,000  Level Oakland Center
09:11PM 39.7636 -120.7844 342° North 415 478 36,000  Level Oakland Center
09:12PM 39.8950 -120.8389 342° North 414 476 36,000  Level Oakland Center
09:13PM 40.0047 -120.8858 342° North 415 478 36,000  Level Oakland Center
09:14PM 40.1081 -120.9272 343° North 412 474 36,000  Level Oakland Center
09:15PM 40.2158 -120.9747 341° North 412 474 36,000  Level Oakland Center
09:16PM 40.3236 -121.0197 342° North 409 471 36,000  Level Oakland Center
09:17PM 40.4317 -121.0661 342° North 410 472 36,000  Level Oakland Center
09:18PM 40.5622 -121.1214 342° North 412 474 36,000  Level Oakland Center
09:19PM 40.6722 -121.1781 339° North 426 490 36,000  Level Oakland Center
09:20PM 40.7831 -121.2214 344° North 417 480 36,000  Level Oakland Center
09:21PM 40.8931 -121.2650 343° North 416 479 36,000  Level Oakland Center
09:22PM 41.0036 -121.3142 341° North 418 481 36,000  Level Oakland Center
09:23PM 41.1156 -121.3633 342° North 415 478 36,000  Level Seattle Center
09:24PM 41.2275 -121.4131 342° North 422 486 36,000  Level Seattle Center
09:25PM 41.3381 -121.4617 342° North 420 483 36,000  Level Seattle Center
09:26PM 41.4486 -121.5108 342° North 419 482 36,000  Level Seattle Center
09:27PM 41.5589 -121.5586 342° North 417 480 36,000  Level Seattle Center
09:28PM 41.6692 -121.6083 341° North 417 480 36,000  Level Seattle Center
09:29PM 41.8014 -121.6667 342° North 418 481 36,000  Level Seattle Center
09:30PM 41.9103 -121.7139 342° North 414 476 36,000  Level Seattle Center
09:31PM 42.0192 -121.7619 342° North 417 480 36,000  Level Seattle Center
09:32PM 42.1267 -121.8111 341° North 417 480 36,000  Level Seattle Center
09:33PM 42.2344 -121.8589 342° North 416 479 36,000  Level Seattle Center
09:34PM 42.3422 -121.9075 342° North 414 476 36,000  Level Seattle Center
09:35PM 42.4492 -121.9564 341° North 410 472 36,000  Level Seattle Center
09:36PM 42.5581 -122.0050 342° North 412 474 36,000  Level Seattle Center
09:37PM 42.6653 -122.0547 341° North 409 471 36,000  Level Seattle Center
09:38PM 42.7742 -122.1047 341° North 414 476 36,000  Level Seattle Center
09:39PM 42.9042 -122.1631 342° North 412 474 36,000  Level Seattle Center
09:40PM 43.0147 -122.2150 341° North 411 473 36,000  Level Seattle Center
09:41PM 43.1272 -122.2664 342° North 412 474 36,000  Level Seattle Center
09:42PM 43.2353 -122.3147 342° North 411 473 36,000 -120 Level Seattle Center
09:43PM 43.3431 -122.3683 340° North 412 474 35,800 -900 Descending Seattle Center
09:44PM 43.4519 -122.4172 342° North 413 475 34,200 -1,620 Descending Seattle Center
09:45PM 43.5589 -122.4672 341° North 408 470 32,600 -1,620 Descending Seattle Center
09:46PM 43.6672 -122.5189 341° North 411 473 31,000 -1,620 Descending Seattle Center
09:47PM 43.7789 -122.5722 341° North 426 490 29,400 -1,680 Descending Seattle Center
09:48PM 43.8900 -122.6264 341° North 426 490 27,700 -1,680 Descending Seattle Center
09:49PM 44.0025 -122.6819 340° North 431 496 26,000 -1,740 Descending Seattle Center
09:50PM 44.1153 -122.7356 341° North 432 497 24,200 -1,860 Descending Seattle Center
09:51PM 44.2347 -122.7428 358° North 439 505 22,300 -1,860 Descending Seattle Center
09:52PM 44.3522 -122.7339 North 436 502 20,500 -2,040 Descending Seattle Center
09:53PM 44.4914 -122.7197 North 423 487 18,200 -1,920 Descending Seattle Center
09:54PM 44.6028 -122.7086 North 408 470 16,700 -1,680 Descending Seattle Center
09:55PM 44.7128 -122.6983 North 401 461 14,800 -1,920 Descending Seattle Center
09:56PM 44.8178 -122.6878 North 387 445 12,900 -1,680 Descending Seattle Center
09:57PM 44.8531 -122.6836 North 347 399 12,600 -840 Descending Seattle Center
09:57PM 44.9089 -122.6786 North 347 399 12,100 -720 Descending Seattle Center
09:58PM 44.9403 -122.6761 North 302 348 11,900 -720 Descending Seattle Center
09:58PM 44.9947 -122.6700 North 318 366 11,400 -840 Descending Seattle Center
09:59PM 45.0336 -122.6658 North 335 386 11,100 -900 Descending Seattle Center
09:59PM 45.0833 -122.6408 20° North 326 375 10,500 -1,260 Descending Seattle Center
10:01PM 45.1772 -122.5833 23° Northeast 281 323 8,800 -1,380 Descending Seattle Center
10:01PM 45.2269 -122.5547 22° Northeast 281 323 7,700 -1,680 Descending Seattle Center
10:03PM 45.3186 -122.5011 22° Northeast 273 314 5,500 -1,680 Descending Seattle Center
10:03PM 45.3661 -122.4708 24° Northeast 273 314 4,300 -1,680 Descending Seattle Center
10:04PM 45.4464 -122.4217 23° Northeast 266 306 2,500 -960 Descending Seattle Center
10:05PM 45.5086 -122.3981 15° North 234 269 2,400 -180 Descending Seattle Center
10:06PM 45.5442 -122.4650 307° West 223 257 2,200 -840 Descending Seattle Center
10:07PM 45.5689 -122.5258 300° West 198 228 800 -960 Descending Seattle Center
10:08PM 45.5864 -122.5717 299° West 183 211 300 -540 Descending Seattle Center
10:10PM 45.5833 -122.5833 316° Northwest  Level FlightAware Approximate